createdAt,value
2017-10-17T00:00:40.336Z,101280.51
2017-10-17T00:01:46.273Z,101277.84
2017-10-17T00:02:51.484Z,101278.43
2017-10-17T00:03:57.583Z,101275.66
2017-10-17T00:05:03.475Z,101276.94
2017-10-17T00:06:08.895Z,101272.73
2017-10-17T00:07:14.115Z,101271.56
2017-10-17T00:08:19.390Z,101271.55
2017-10-17T00:09:25.108Z,101262.36
2017-10-17T00:10:30.316Z,101273.23
2017-10-17T00:11:35.556Z,101267.31
2017-10-17T00:12:40.788Z,101270.89
2017-10-17T00:13:48.840Z,101268.17
2017-10-17T00:14:54.437Z,101266.95
2017-10-17T00:16:00.544Z,101262.70
2017-10-17T00:17:07.149Z,101271.28
2017-10-17T00:18:12.835Z,101265.03
2017-10-17T00:19:18.848Z,101271.02
2017-10-17T00:20:24.129Z,101277.14
2017-10-17T00:21:30.276Z,101266.53
2017-10-17T00:22:35.518Z,101270.05
2017-10-17T00:23:42.889Z,101267.89
2017-10-17T00:24:55.444Z,101267.37
2017-10-17T00:26:00.712Z,101269.55
2017-10-17T00:27:05.991Z,101263.85
2017-10-17T00:28:11.244Z,101264.66
2017-10-17T00:29:16.304Z,101264.42
2017-10-17T00:30:41.238Z,101265.30
2017-10-17T00:31:47.300Z,101265.74
2017-10-17T00:32:52.932Z,101264.88
2017-10-17T00:33:58.195Z,101265.29
2017-10-17T00:35:03.494Z,101264.70
2017-10-17T00:36:08.883Z,101254.48
2017-10-17T00:37:15.052Z,101258.04
2017-10-17T00:38:21.019Z,101260.58
2017-10-17T00:39:27.067Z,101263.31
2017-10-17T00:40:32.290Z,101264.44
2017-10-17T00:41:37.561Z,101262.78
2017-10-17T00:42:43.722Z,101261.83
2017-10-17T00:43:49.283Z,101260.13
2017-10-17T00:44:54.525Z,101255.61
2017-10-17T00:46:02.038Z,101260.92
2017-10-17T00:47:11.781Z,101265.30
2017-10-17T00:48:18.274Z,101263.41
2017-10-17T00:49:23.747Z,101261.82
2017-10-17T00:50:29.393Z,101264.45
2017-10-17T00:51:34.649Z,101259.60
2017-10-17T00:52:40.800Z,101262.76
2017-10-17T00:53:46.078Z,101262.98
2017-10-17T00:54:51.309Z,101264.05
2017-10-17T00:55:57.444Z,101264.37
2017-10-17T00:57:03.466Z,101261.87
2017-10-17T00:58:09.287Z,101261.14
2017-10-17T00:59:15.364Z,101260.73
2017-10-17T01:00:20.808Z,101265.73
2017-10-17T01:01:26.055Z,101269.12
2017-10-17T01:02:31.423Z,101263.19
2017-10-17T01:03:37.016Z,101266.00
2017-10-17T01:04:42.039Z,101268.24
2017-10-17T01:05:47.136Z,101267.45
2017-10-17T01:06:53.003Z,101264.50
2017-10-17T01:07:58.730Z,101261.59
2017-10-17T01:09:05.191Z,101256.28
2017-10-17T01:10:11.505Z,101259.97
2017-10-17T01:11:17.901Z,101262.62
2017-10-17T01:12:23.141Z,101262.21
2017-10-17T01:13:28.973Z,101259.56
2017-10-17T01:14:35.124Z,101260.17
2017-10-17T01:15:40.515Z,101255.11
2017-10-17T01:16:46.556Z,101256.27
2017-10-17T01:17:51.771Z,101255.09
2017-10-17T01:18:57.723Z,101253.27
2017-10-17T01:20:06.756Z,101251.52
2017-10-17T01:21:13.674Z,101253.09
2017-10-17T01:22:20.307Z,101254.16
2017-10-17T01:23:28.167Z,101252.41
2017-10-17T01:24:33.266Z,101245.80
2017-10-17T01:25:38.485Z,101242.67
2017-10-17T01:26:43.773Z,101239.96
2017-10-17T01:28:04.890Z,101240.48
2017-10-17T01:29:22.648Z,101243.36
2017-10-17T01:30:28.517Z,101245.06
2017-10-17T01:31:33.746Z,101237.66
2017-10-17T01:32:39.141Z,101243.25
2017-10-17T01:33:48.068Z,101246.51
2017-10-17T01:34:56.076Z,101246.94
2017-10-17T01:36:05.050Z,101236.00
2017-10-17T01:37:10.486Z,101241.02
2017-10-17T01:38:19.289Z,101238.50
2017-10-17T01:39:24.710Z,101236.30
2017-10-17T01:40:31.533Z,101238.88
2017-10-17T01:41:36.819Z,101246.09
2017-10-17T01:42:42.176Z,101232.56
2017-10-17T01:43:53.952Z,101235.04
2017-10-17T01:45:02.717Z,101236.63
2017-10-17T01:46:08.820Z,101240.94
2017-10-17T01:47:14.941Z,101242.36
2017-10-17T01:48:21.239Z,101236.92
2017-10-17T01:49:29.187Z,101240.50
2017-10-17T01:50:34.379Z,101238.00
2017-10-17T01:51:54.935Z,101239.66
2017-10-17T01:53:09.532Z,101244.31
2017-10-17T01:54:17.904Z,101243.67
2017-10-17T01:55:23.463Z,101243.08
2017-10-17T01:56:29.013Z,101239.84
2017-10-17T01:57:34.942Z,101238.16
2017-10-17T01:58:42.239Z,101233.87
2017-10-17T02:00:09.331Z,101232.65
2017-10-17T02:01:15.236Z,101225.98
2017-10-17T02:02:20.599Z,101233.25
2017-10-17T02:03:25.841Z,101230.88
2017-10-17T02:04:31.222Z,101232.08
2017-10-17T02:05:36.511Z,101234.06
2017-10-17T02:06:41.800Z,101234.20
2017-10-17T02:07:48.474Z,101231.69
2017-10-17T02:08:54.576Z,101231.42
2017-10-17T02:10:00.581Z,101237.19
2017-10-17T02:11:06.792Z,101238.13
2017-10-17T02:12:12.029Z,101234.09
2017-10-17T02:13:17.562Z,101236.06
2017-10-17T02:14:23.326Z,101233.91
2017-10-17T02:15:28.640Z,101236.39
2017-10-17T02:16:33.890Z,101234.34
2017-10-17T02:17:39.216Z,101234.88
2017-10-17T02:18:52.960Z,101231.41
2017-10-17T02:19:59.057Z,101229.72
2017-10-17T02:21:06.005Z,101231.13
2017-10-17T02:22:17.116Z,101229.38
2017-10-17T02:23:23.226Z,101228.88
2017-10-17T02:24:29.184Z,101232.98
2017-10-17T02:25:38.158Z,101236.64
2017-10-17T02:26:43.517Z,101235.95
2017-10-17T02:27:48.888Z,101242.31
2017-10-17T02:29:04.449Z,101239.77
2017-10-17T02:30:12.248Z,101245.17
2017-10-17T02:31:18.221Z,101244.98
2017-10-17T02:32:24.677Z,101239.97
2017-10-17T02:33:35.357Z,101236.37
2017-10-17T02:34:45.968Z,101231.28
2017-10-17T02:35:52.033Z,101239.23
2017-10-17T02:36:59.078Z,101231.69
2017-10-17T02:38:08.821Z,101233.66
2017-10-17T02:39:15.086Z,101230.36
2017-10-17T02:40:20.819Z,101229.64
2017-10-17T02:41:26.936Z,101227.98
2017-10-17T02:42:32.195Z,101228.52
2017-10-17T02:43:55.017Z,101232.80
2017-10-17T02:45:12.501Z,101225.45
2017-10-17T02:46:19.326Z,101226.76
2017-10-17T02:47:25.364Z,101228.17
2017-10-17T02:48:44.330Z,101220.64
2017-10-17T02:49:53.878Z,101217.72
2017-10-17T02:50:59.752Z,101215.74
2017-10-17T02:52:10.332Z,101217.67
2017-10-17T02:53:15.589Z,101211.66
2017-10-17T02:54:21.264Z,101216.95
2017-10-17T02:55:27.155Z,101219.67
2017-10-17T02:56:32.384Z,101216.23
2017-10-17T02:57:38.963Z,101211.48
2017-10-17T02:58:45.068Z,101215.83
2017-10-17T02:59:51.116Z,101221.08
2017-10-17T03:00:57.283Z,101216.29
2017-10-17T03:02:03.392Z,101216.05
2017-10-17T03:03:10.642Z,101219.31
2017-10-17T03:04:27.928Z,101217.81
2017-10-17T03:05:35.462Z,101219.43
2017-10-17T03:06:40.662Z,101221.50
2017-10-17T03:07:46.421Z,101221.42
2017-10-17T03:08:56.298Z,101218.56
2017-10-17T03:10:01.540Z,101214.95
2017-10-17T03:11:08.001Z,101215.19
2017-10-17T03:12:14.210Z,101216.52
2017-10-17T03:13:19.556Z,101215.28
2017-10-17T03:14:40.775Z,101212.85
2017-10-17T03:16:00.153Z,101216.34
2017-10-17T03:17:05.431Z,101211.23
2017-10-17T03:18:13.538Z,101213.58
2017-10-17T03:19:18.993Z,101219.52
2017-10-17T03:20:25.840Z,101210.44
2017-10-17T03:21:46.031Z,101209.05
2017-10-17T03:22:52.212Z,101209.39
2017-10-17T03:24:02.112Z,101198.72
2017-10-17T03:25:22.277Z,101202.14
2017-10-17T03:26:27.669Z,101201.19
2017-10-17T03:27:33.897Z,101202.11
2017-10-17T03:28:41.953Z,101205.44
2017-10-17T03:29:47.993Z,101200.71
2017-10-17T03:30:54.451Z,101205.48
2017-10-17T03:31:59.637Z,101202.80
2017-10-17T03:33:06.154Z,101197.02
2017-10-17T03:34:14.637Z,101205.08
2017-10-17T03:35:25.534Z,101202.81
2017-10-17T03:36:34.297Z,101201.84
2017-10-17T03:37:56.452Z,101200.80
2017-10-17T03:39:04.098Z,101198.04
2017-10-17T03:40:13.880Z,101200.59
2017-10-17T03:41:37.881Z,101197.48
2017-10-17T03:42:48.100Z,101194.27
2017-10-17T03:43:58.721Z,101188.59
2017-10-17T03:45:06.110Z,101190.44
2017-10-17T03:46:12.766Z,101191.91
2017-10-17T03:47:22.365Z,101187.69
2017-10-17T03:48:28.633Z,101185.48
2017-10-17T03:49:44.515Z,101187.75
2017-10-17T03:50:50.217Z,101183.87
2017-10-17T03:51:56.974Z,101185.38
2017-10-17T03:53:08.514Z,101182.75
2017-10-17T03:54:15.115Z,101182.17
2017-10-17T03:55:20.936Z,101182.72
2017-10-17T03:56:28.122Z,101183.72
2017-10-17T03:57:34.022Z,101186.02
2017-10-17T03:58:40.229Z,101185.89
2017-10-17T03:59:52.220Z,101182.83
2017-10-17T04:00:58.017Z,101185.55
2017-10-17T04:02:03.028Z,101181.09
2017-10-17T04:03:09.059Z,101182.84
2017-10-17T04:04:35.837Z,101183.16
2017-10-17T04:06:04.886Z,101185.77
2017-10-17T04:07:18.989Z,101184.97
2017-10-17T04:08:34.260Z,101184.45
2017-10-17T04:10:08.401Z,101183.59
2017-10-17T04:11:16.871Z,101188.59
2017-10-17T04:12:22.050Z,101185.42
2017-10-17T04:13:48.091Z,101184.43
2017-10-17T04:14:55.619Z,101187.88
2017-10-17T04:16:05.459Z,101185.75
2017-10-17T04:17:15.629Z,101190.57
2017-10-17T04:18:48.968Z,101195.83
2017-10-17T04:20:13.706Z,101194.05
2017-10-17T04:21:24.441Z,101190.77
2017-10-17T04:22:36.229Z,101190.84
2017-10-17T04:23:50.039Z,101189.45
2017-10-17T04:25:15.578Z,101189.68
2017-10-17T04:26:40.432Z,101192.45
2017-10-17T04:28:04.893Z,101185.59
2017-10-17T04:29:20.391Z,101185.66
2017-10-17T04:30:51.449Z,101187.17
2017-10-17T04:31:57.860Z,101188.63
2017-10-17T04:33:05.490Z,101185.80
2017-10-17T04:34:26.079Z,101185.72
2017-10-17T04:35:31.841Z,101189.11
2017-10-17T04:36:42.974Z,101184.83
2017-10-17T04:37:48.147Z,101186.81
2017-10-17T04:38:53.333Z,101188.19
2017-10-17T04:39:58.853Z,101186.44
2017-10-17T04:41:04.034Z,101193.84
2017-10-17T04:42:19.020Z,101190.48
2017-10-17T04:43:47.452Z,101195.84
2017-10-17T04:45:38.041Z,101189.63
2017-10-17T04:57:29.083Z,101199.47
2017-10-17T04:58:36.909Z,101199.02
2017-10-17T04:59:49.191Z,101194.48
2017-10-17T05:00:54.181Z,101194.41
2017-10-17T05:02:18.907Z,101198.58
2017-10-17T05:03:36.596Z,101192.43
2017-10-17T05:04:46.365Z,101192.52
2017-10-17T05:05:56.862Z,101183.86
2017-10-17T05:07:02.883Z,101187.98
2017-10-17T05:08:34.309Z,101190.97
2017-10-17T05:09:56.513Z,101190.46
2017-10-17T05:11:02.944Z,101187.24
2017-10-17T05:12:07.906Z,101192.14
2017-10-17T05:13:31.466Z,101187.27
2017-10-17T05:14:52.175Z,101196.06
2017-10-17T05:15:59.706Z,101193.37
2017-10-17T05:17:10.295Z,101189.09
2017-10-17T05:18:20.730Z,101189.19
2017-10-17T05:19:37.557Z,101190.65
2017-10-17T05:20:46.524Z,101191.48
2017-10-17T05:22:06.928Z,101189.09
2017-10-17T05:23:27.700Z,101196.63
2017-10-17T05:25:03.346Z,101192.44
2017-10-17T05:26:20.292Z,101196.42
2017-10-17T05:27:36.675Z,101198.12
2017-10-17T05:28:42.187Z,101191.11
2017-10-17T05:29:47.280Z,101198.27
2017-10-17T05:30:53.546Z,101192.67
2017-10-17T05:31:58.523Z,101197.47
2017-10-17T05:34:49.832Z,101192.50
2017-10-17T05:35:55.425Z,101196.95
2017-10-17T05:37:19.300Z,101194.59
2017-10-17T05:38:24.335Z,101200.28
2017-10-17T05:39:31.958Z,101196.37
2017-10-17T05:40:37.858Z,101198.56
2017-10-17T05:41:42.909Z,101195.23
2017-10-17T05:42:48.045Z,101201.67
2017-10-17T05:44:11.886Z,101199.77
2017-10-17T05:45:18.662Z,101199.09
2017-10-17T05:46:23.641Z,101205.59
2017-10-17T05:47:29.404Z,101205.95
2017-10-17T05:48:34.483Z,101201.08
2017-10-17T05:49:41.225Z,101205.64
2017-10-17T05:50:48.026Z,101203.68
2017-10-17T05:51:53.130Z,101208.12
2017-10-17T05:52:58.294Z,101210.56
2017-10-17T05:54:04.144Z,101203.69
2017-10-17T05:55:09.855Z,101209.92
2017-10-17T05:56:15.594Z,101209.13
2017-10-17T05:57:21.386Z,101206.51
2017-10-17T05:58:26.884Z,101207.94
2017-10-17T05:59:32.635Z,101215.50
2017-10-17T06:00:38.075Z,101212.41
2017-10-17T06:01:43.831Z,101210.24
2017-10-17T06:02:49.504Z,101216.46
2017-10-17T06:03:55.064Z,101217.69
2017-10-17T06:05:00.813Z,101215.57
2017-10-17T06:06:06.499Z,101213.47
2017-10-17T06:07:12.205Z,101216.52
2017-10-17T06:08:17.907Z,101220.91
2017-10-17T06:09:23.947Z,101221.44
2017-10-17T06:10:29.612Z,101219.50
2017-10-17T06:11:36.571Z,101220.17
2017-10-17T06:12:44.488Z,101221.15
2017-10-17T06:13:50.212Z,101229.55
2017-10-17T06:14:55.865Z,101223.97
2017-10-17T06:16:01.939Z,101223.06
2017-10-17T06:17:08.139Z,101228.72
2017-10-17T06:18:14.168Z,101220.34
2017-10-17T06:19:21.103Z,101223.92
2017-10-17T06:20:27.379Z,101225.00
2017-10-17T06:21:34.294Z,101226.63
2017-10-17T06:22:40.588Z,101226.27
2017-10-17T06:23:46.913Z,101226.37
2017-10-17T06:24:52.929Z,101224.95
2017-10-17T06:25:59.149Z,101215.97
2017-10-17T06:27:05.315Z,101217.30
2017-10-17T06:28:11.547Z,101231.47
2017-10-17T06:29:18.399Z,101223.94
2017-10-17T06:30:24.440Z,101222.67
2017-10-17T06:31:30.713Z,101225.38
2017-10-17T06:32:36.885Z,101229.41
2017-10-17T06:33:43.675Z,101228.14
2017-10-17T06:34:49.926Z,101227.71
2017-10-17T06:35:56.236Z,101225.85
2017-10-17T06:37:02.427Z,101231.56
2017-10-17T06:38:09.302Z,101228.70
2017-10-17T06:39:15.487Z,101224.00
2017-10-17T06:40:21.705Z,101229.57
2017-10-17T06:41:27.902Z,101228.35
2017-10-17T06:42:35.061Z,101234.20
2017-10-17T06:43:41.890Z,101235.42
2017-10-17T06:44:48.169Z,101229.50
